Time;durP1;ratioP1;P1;durP2;ratioP2;P2;SDS_P1;SDS_P2;PMS_P1;PMS_P2;Temp;Humidity;BMP_temperature;BMP_pressure;BME280_temperature;BME280_humidity;BME280_pressure;Samples;Min_cycle;Max_cycle;Signal;HPM_P1;HPM_P2
2021/07/17 00:00:29;;;;;;;;;;;;;;;21.45;60.26;95966.84;1045698;28;1153;-75
2021/07/17 00:00:59;;;;;;;;;;;;;;;21.45;60.51;95960.81;1045382;28;1154;-75
2021/07/17 00:01:30;;;;;;;;;;;;;;;21.45;60.25;95961.56;1045807;28;502;-76
2021/07/17 00:02:00;;;;;;;;;;;;;;;21.44;60.47;95954.75;1045484;28;1192;-75
2021/07/17 00:02:31;;;;;;;;;;;;;;;21.43;60.60;95958.44;1041332;28;1182;-75
2021/07/17 00:03:03;;;;;;;;;;;;;;;21.44;60.50;95959.22;1041150;28;978;-74
2021/07/17 00:03:33;;;;;;;;;;;;;;;21.43;60.53;95962.94;1041489;28;1021;-75
2021/07/17 00:04:04;;;;;;;;;;;;;;;21.44;60.53;95959.22;1041382;28;1303;-74
2021/07/17 00:04:34;;;;;;;;;;;;;;;21.43;60.53;95955.78;1039570;28;2406;-76
2021/07/17 00:05:08;;;;;;;;;;;;;;;21.44;60.31;95964.50;1037144;28;1171;-74
2021/07/17 00:05:38;;;;;;;;;;;;;;;21.43;60.05;95963.69;1037227;28;871;-76
2021/07/17 00:06:08;;;;;;;;;;;;;;;21.43;60.04;95961.06;1036371;28;2247;-75
2021/07/17 00:06:39;;;;;;;;;;;;;;;21.43;60.08;95957.66;1035939;28;2301;-75
2021/07/17 00:07:09;;;;;;;;;;;;;;;21.42;60.36;95956.88;1041150;28;1178;-75
2021/07/17 00:07:40;;;;;;;;;;;;;;;21.43;60.51;95952.38;1039315;28;1142;-75
2021/07/17 00:08:10;;;;;;;;;;;;;;;21.42;60.28;95956.06;1040598;28;1910;-75
2021/07/17 00:08:41;;;;;;;;;;;;;;;21.42;60.29;95956.88;1041603;28;962;-75
2021/07/17 00:09:12;;;;;;;;;;;;;;;21.42;60.38;95950.78;1040866;28;1668;-75
2021/07/17 00:09:42;;;;;;;;;;;;;;;21.40;60.44;95950.28;1041119;28;2779;-74
2021/07/17 00:10:15;;;;;;;;;;;;;;;21.41;60.50;95955.28;1042178;28;1319;-75
2021/07/17 00:10:47;;;;;;;;;;;;;;;21.41;60.51;95949.22;1045157;28;1234;-74
2021/07/17 00:11:17;;;;;;;;;;;;;;;21.39;60.52;95946.09;1045185;28;1049;-75
2021/07/17 00:11:48;;;;;;;;;;;;;;;21.40;60.28;95952.91;1044809;28;1439;-75
2021/07/17 00:12:18;;;;;;;;;;;;;;;21.38;60.61;95953.19;1045624;28;1209;-74
2021/07/17 00:12:48;;;;;;;;;;;;;;;21.39;60.59;95956.63;1044049;28;1041;-76
2021/07/17 00:13:19;;;;;;;;;;;;;;;21.38;60.57;95947.13;1045230;28;1050;-79
2021/07/17 00:13:49;;;;;;;;;;;;;;;21.36;60.58;95950.06;1039814;28;2701;-76
2021/07/17 00:14:19;;;;;;;;;;;;;;;21.36;60.56;95951.88;1038767;28;2314;-75
2021/07/17 00:14:49;;;;;;;;;;;;;;;21.36;60.61;95949.25;1045033;28;977;-75
2021/07/17 00:15:23;;;;;;;;;;;;;;;21.36;60.20;95951.88;1045414;28;883;-76
2021/07/17 00:15:54;;;;;;;;;;;;;;;21.36;60.48;95943.97;1040811;28;1147;-75
2021/07/17 00:16:26;;;;;;;;;;;;;;;21.36;60.42;95944.78;1038476;28;1186;-75
2021/07/17 00:16:57;;;;;;;;;;;;;;;21.36;60.48;95943.97;1038341;28;1192;-76
2021/07/17 00:17:27;;;;;;;;;;;;;;;21.35;60.47;95942.41;1039440;28;1148;-75
2021/07/17 00:17:58;;;;;;;;;;;;;;;21.35;60.59;95942.41;1043984;28;1163;-75
2021/07/17 00:18:28;;;;;;;;;;;;;;;21.34;60.40;95943.47;1040572;28;1545;-75
2021/07/17 00:18:58;;;;;;;;;;;;;;;21.34;60.29;95938.19;1039344;28;1199;-75
2021/07/17 00:19:28;;;;;;;;;;;;;;;21.34;60.31;95938.19;1039518;28;2333;-74
2021/07/17 00:19:59;;;;;;;;;;;;;;;21.35;60.46;95945.06;1038941;28;1132;-75
2021/07/17 00:20:29;;;;;;;;;;;;;;;21.35;60.44;95945.06;1044713;28;1206;-74
2021/07/17 00:20:59;;;;;;;;;;;;;;;21.34;60.31;95948.75;1047066;28;1282;-74
2021/07/17 00:21:30;;;;;;;;;;;;;;;21.34;60.27;95941.63;1036856;28;1681;-75
2021/07/17 00:22:00;;;;;;;;;;;;;;;21.33;60.10;95940.03;1043114;28;1021;-73
2021/07/17 00:22:30;;;;;;;;;;;;;;;21.35;60.03;95945.06;1040476;28;1901;-75
2021/07/17 00:23:01;;;;;;;;;;;;;;;21.37;60.16;95948.22;1043285;28;1175;-75
2021/07/17 00:23:31;;;;;;;;;;;;;;;21.36;59.94;95943.97;1048568;28;958;-75
2021/07/17 00:24:01;;;;;;;;;;;;;;;21.35;59.88;95945.81;1045072;28;1214;-75
2021/07/17 00:24:31;;;;;;;;;;;;;;;21.35;60.15;95942.41;1044401;28;2269;-76
2021/07/17 00:25:03;;;;;;;;;;;;;;;21.34;60.01;95944.25;1042913;28;2336;-75
2021/07/17 00:25:33;;;;;;;;;;;;;;;21.34;60.07;95943.47;1037209;28;784;-77
2021/07/17 00:26:03;;;;;;;;;;;;;;;21.35;59.96;95939.78;1036784;28;1312;-74
2021/07/17 00:26:34;;;;;;;;;;;;;;;21.35;60.26;95937.91;1037222;28;1296;-76
2021/07/17 00:27:04;;;;;;;;;;;;;;;21.35;60.22;95945.06;1041143;28;1132;-75
2021/07/17 00:27:34;;;;;;;;;;;;;;;21.35;60.18;95942.41;1045257;28;687;-74
2021/07/17 00:28:05;;;;;;;;;;;;;;;21.36;60.25;95941.34;1045233;28;1910;-75
2021/07/17 00:28:35;;;;;;;;;;;;;;;21.36;60.09;95942.13;1045808;28;967;-75
2021/07/17 00:29:06;;;;;;;;;;;;;;;21.34;60.28;95944.25;1045405;28;1139;-74
2021/07/17 00:29:36;;;;;;;;;;;;;;;21.35;60.01;95945.06;1045021;28;1442;-76
2021/07/17 00:30:06;;;;;;;;;;;;;;;21.34;60.09;95943.47;1044317;28;2299;-75
2021/07/17 00:30:37;;;;;;;;;;;;;;;21.34;60.12;95946.09;1042487;28;1897;-76
2021/07/17 00:31:07;;;;;;;;;;;;;;;21.35;60.20;95945.06;1045593;28;1144;-75
2021/07/17 00:31:37;;;;;;;;;;;;;;;21.34;60.22;95948.75;1045613;28;1158;-75
2021/07/17 00:32:07;;;;;;;;;;;;;;;21.34;59.96;95948.75;1048689;28;1119;-74
2021/07/17 00:32:38;;;;;;;;;;;;;;;21.34;60.34;95948.75;1048318;28;1253;-76
2021/07/17 00:33:08;;;;;;;;;;;;;;;21.33;60.05;95945.31;1046542;28;1127;-76
2021/07/17 00:33:38;;;;;;;;;;;;;;;21.32;60.08;95953.50;1045458;28;1214;-75
2021/07/17 00:34:09;;;;;;;;;;;;;;;21.32;60.17;95942.94;1040577;28;1192;-75
2021/07/17 00:34:39;;;;;;;;;;;;;;;21.31;60.15;95952.72;1040372;28;1533;-72
2021/07/17 00:35:09;;;;;;;;;;;;;;;21.32;60.29;95956.13;1039915;28;2340;-75
2021/07/17 00:35:39;;;;;;;;;;;;;;;21.32;59.97;95953.50;1041291;28;1053;-75
2021/07/17 00:36:10;;;;;;;;;;;;;;;21.32;60.37;95945.59;1044952;28;1262;-72
2021/07/17 00:36:40;;;;;;;;;;;;;;;21.31;60.56;95950.06;1045101;28;1111;-75
2021/07/17 00:37:10;;;;;;;;;;;;;;;21.32;60.44;95948.22;1045057;28;1247;-76
2021/07/17 00:37:40;;;;;;;;;;;;;;;21.31;60.29;95944.03;1045227;28;1193;-76
2021/07/17 00:38:11;;;;;;;;;;;;;;;21.31;60.37;95946.66;1039915;28;1209;-74
2021/07/17 00:38:41;;;;;;;;;;;;;;;21.33;60.43;95947.19;1035577;28;1711;-75
2021/07/17 00:39:11;;;;;;;;;;;;;;;21.32;60.38;95956.13;1042416;28;1160;-75
2021/07/17 00:39:42;;;;;;;;;;;;;;;21.32;60.04;95945.59;1041110;28;800;-74
2021/07/17 00:40:12;;;;;;;;;;;;;;;21.32;60.28;95946.38;1045281;28;2284;-74
2021/07/17 00:40:42;;;;;;;;;;;;;;;21.31;60.19;95949.31;1042263;28;1300;-75
2021/07/17 00:41:13;;;;;;;;;;;;;;;21.32;60.00;95945.59;1045392;28;1242;-75
2021/07/17 00:41:43;;;;;;;;;;;;;;;21.30;59.97;95947.72;1044826;28;1607;-76
2021/07/17 00:42:13;;;;;;;;;;;;;;;21.32;60.17;95956.13;1044909;28;1250;-75
2021/07/17 00:42:44;;;;;;;;;;;;;;;21.31;60.20;95949.31;1045136;28;1179;-77
2021/07/17 00:43:14;;;;;;;;;;;;;;;21.31;60.31;95944.78;1040941;28;796;-73
2021/07/17 00:43:45;;;;;;;;;;;;;;;21.30;60.50;95945.06;1045124;28;1159;-76
2021/07/17 00:44:15;;;;;;;;;;;;;;;21.31;60.22;95949.31;1044413;28;1263;-75
2021/07/17 00:44:45;;;;;;;;;;;;;;;21.31;60.31;95944.78;1044712;28;1548;-73
2021/07/17 00:45:17;;;;;;;;;;;;;;;21.32;60.28;95945.59;1043849;28;2290;-75
2021/07/17 00:45:47;;;;;;;;;;;;;;;21.31;60.63;95947.44;1045123;28;1140;-75
2021/07/17 00:46:17;;;;;;;;;;;;;;;21.31;60.28;95941.41;1044269;28;1956;-74
2021/07/17 00:46:47;;;;;;;;;;;;;;;21.32;60.36;95950.88;1039950;28;1860;-75
2021/07/17 00:47:18;;;;;;;;;;;;;;;21.31;60.45;95936.88;1038537;28;1665;-75
2021/07/17 00:47:50;;;;;;;;;;;;;;;21.32;60.49;95940.31;1033620;28;1507;-74
2021/07/17 00:48:21;;;;;;;;;;;;;;;21.32;60.42;95945.59;1036706;28;1973;-76
2021/07/17 00:48:51;;;;;;;;;;;;;;;21.32;60.21;95945.59;1041290;28;1127;-75
2021/07/17 00:49:21;;;;;;;;;;;;;;;21.32;60.22;95940.31;1041228;28;1546;-76
2021/07/17 00:49:52;;;;;;;;;;;;;;;21.32;60.14;95940.31;1044535;28;1099;-75
2021/07/17 00:50:22;;;;;;;;;;;;;;;21.30;60.08;95929.25;1033513;28;2283;-75
2021/07/17 00:50:52;;;;;;;;;;;;;;;21.30;60.49;95934.53;1033746;28;1274;-76
2021/07/17 00:51:25;;;;;;;;;;;;;;;21.29;60.24;95935.59;1032881;28;1331;-76
2021/07/17 00:51:56;;;;;;;;;;;;;;;21.27;60.30;95940.38;1037554;28;1278;-75
2021/07/17 00:52:26;;;;;;;;;;;;;;;21.29;60.25;95935.59;1045288;28;801;-76
2021/07/17 00:52:56;;;;;;;;;;;;;;;21.27;60.53;95943.00;1044996;28;1164;-75
2021/07/17 00:53:26;;;;;;;;;;;;;;;21.26;60.53;95939.56;1042837;28;2338;-76
2021/07/17 00:53:57;;;;;;;;;;;;;;;21.26;60.79;95938.78;1043698;28;2995;-76
2021/07/17 00:54:27;;;;;;;;;;;;;;;21.26;60.58;95938.78;1044588;28;1498;-75
2021/07/17 00:54:57;;;;;;;;;;;;;;;21.25;60.42;95937.19;1044915;28;1174;-75
2021/07/17 00:55:28;;;;;;;;;;;;;;;21.24;60.40;95941.69;1042320;28;2685;-76
2021/07/17 00:55:58;;;;;;;;;;;;;;;21.25;60.36;95945.09;1044970;28;1366;-75
2021/07/17 00:56:29;;;;;;;;;;;;;;;21.24;60.22;95940.91;1036724;28;1223;-75
2021/07/17 00:57:00;;;;;;;;;;;;;;;21.24;60.47;95939.06;1038242;28;1131;-76
2021/07/17 00:57:34;;;;;;;;;;;;;;;21.24;60.38;95939.06;1036931;28;847;-76
2021/07/17 00:58:04;;;;;;;;;;;;;;;21.24;60.31;95944.31;1038032;28;1144;-76
2021/07/17 00:58:35;;;;;;;;;;;;;;;21.23;60.51;95940.09;1039075;28;2349;-73
2021/07/17 00:59:05;;;;;;;;;;;;;;;21.24;60.19;95948.81;1042361;28;2308;-75
2021/07/17 00:59:35;;;;;;;;;;;;;;;21.26;60.13;95946.69;1035571;28;2530;-76
2021/07/17 01:00:06;;;;;;;;;;;;;;;21.26;59.92;95944.84;1031193;28;2681;-76
2021/07/17 01:00:36;;;;;;;;;;;;;;;21.28;60.05;95944.56;1036363;28;1286;-76
2021/07/17 01:01:07;;;;;;;;;;;;;;;21.27;59.83;95940.38;1036833;28;1160;-76
2021/07/17 01:01:37;;;;;;;;;;;;;;;21.25;59.90;95935.34;1039137;28;2483;-75
2021/07/17 01:02:08;;;;;;;;;;;;;;;21.27;60.21;95945.63;1040741;28;1030;-75
2021/07/17 01:02:44;;;;;;;;;;;;;;;21.26;60.39;95938.78;1039988;28;2711;-76
2021/07/17 01:03:15;;;;;;;;;;;;;;;21.27;60.25;95943.00;1041530;28;1783;-76
2021/07/17 01:03:45;;;;;;;;;;;;;;;21.27;59.90;95940.38;1040257;28;2638;-75
2021/07/17 01:04:15;;;;;;;;;;;;;;;21.25;59.97;95935.34;1037664;28;2270;-75
2021/07/17 01:04:46;;;;;;;;;;;;;;;21.26;59.95;95939.56;1032216;28;2278;-75
2021/07/17 01:05:16;;;;;;;;;;;;;;;21.28;60.15;95941.94;1033789;28;2317;-74
2021/07/17 01:05:47;;;;;;;;;;;;;;;21.28;60.12;95947.19;1038123;28;2284;-74
2021/07/17 01:06:17;;;;;;;;;;;;;;;21.26;59.85;95936.94;1048917;28;943;-75
2021/07/17 01:06:47;;;;;;;;;;;;;;;21.29;59.58;95940.88;1049045;28;1114;-74
2021/07/17 01:07:17;;;;;;;;;;;;;;;21.29;59.73;95939.00;1040853;28;1187;-76
2021/07/17 01:07:48;;;;;;;;;;;;;;;21.31;59.47;95944.03;1041070;28;1147;-75
2021/07/17 01:08:18;;;;;;;;;;;;;;;21.30;59.83;95939.81;1040120;28;1906;-75
2021/07/17 01:08:49;;;;;;;;;;;;;;;21.30;59.91;95937.16;1040775;28;1230;-73
2021/07/17 01:09:19;;;;;;;;;;;;;;;21.28;60.07;95937.44;1040713;28;955;-76
2021/07/17 01:09:49;;;;;;;;;;;;;;;21.28;60.14;95942.72;1040235;28;1448;-76
2021/07/17 01:10:19;;;;;;;;;;;;;;;21.27;59.93;95940.38;1037352;28;2769;-75
2021/07/17 01:10:50;;;;;;;;;;;;;;;21.26;60.03;95939.56;1036898;28;1723;-74
2021/07/17 01:11:20;;;;;;;;;;;;;;;21.25;59.89;95939.81;1033168;28;1101;-75
2021/07/17 01:11:51;;;;;;;;;;;;;;;21.24;59.96;95927.72;1037742;28;970;-76
2021/07/17 01:12:21;;;;;;;;;;;;;;;21.23;60.28;95934.03;1037028;28;1251;-75
2021/07/17 01:12:52;;;;;;;;;;;;;;;21.23;60.22;95932.19;1039015;28;1211;-77
2021/07/17 01:13:22;;;;;;;;;;;;;;;21.23;60.00;95937.47;1045054;28;878;-75
2021/07/17 01:13:52;;;;;;;;;;;;;;;21.23;59.96;95942.75;1043726;28;2263;-74
2021/07/17 01:14:23;;;;;;;;;;;;;;;21.23;60.27;95934.03;1043676;28;2247;-76
2021/07/17 01:14:53;;;;;;;;;;;;;;;21.22;60.04;95937.75;1040768;28;1528;-76
2021/07/17 01:15:23;;;;;;;;;;;;;;;21.21;60.21;95944.06;1040297;28;2474;-75
2021/07/17 01:15:54;;;;;;;;;;;;;;;21.21;60.39;95941.44;1042171;28;1124;-75
2021/07/17 01:16:24;;;;;;;;;;;;;;;21.22;60.29;95940.38;1036889;28;1203;-75
2021/07/17 01:16:54;;;;;;;;;;;;;;;21.20;60.45;95937.22;1035028;28;1280;-75
2021/07/17 01:17:25;;;;;;;;;;;;;;;21.20;60.19;95939.88;1028849;28;754;-76
2021/07/17 01:17:55;;;;;;;;;;;;;;;21.18;60.20;95934.88;1028670;28;1219;-76
2021/07/17 01:18:25;;;;;;;;;;;;;;;21.19;60.23;95939.06;1032619;28;1432;-75
2021/07/17 01:18:56;;;;;;;;;;;;;;;21.20;60.32;95939.88;1036787;28;1280;-75
2021/07/17 01:19:26;;;;;;;;;;;;;;;21.19;60.29;95930.38;1032548;28;1060;-75
2021/07/17 01:19:56;;;;;;;;;;;;;;;21.19;60.35;95935.63;1032526;28;1145;-75
2021/07/17 01:20:26;;;;;;;;;;;;;;;21.18;60.38;95932.25;1032627;28;2559;-74
2021/07/17 01:20:57;;;;;;;;;;;;;;;21.17;60.60;95930.66;1032722;28;1186;-76
2021/07/17 01:21:27;;;;;;;;;;;;;;;21.16;60.50;95934.34;1035879;28;1648;-75
2021/07/17 01:21:57;;;;;;;;;;;;;;;21.16;60.34;95928.28;1040370;28;1242;-75
2021/07/17 01:22:27;;;;;;;;;;;;;;;21.16;60.42;95930.94;1041073;28;870;-74
2021/07/17 01:22:58;;;;;;;;;;;;;;;21.16;60.65;95933.56;1040823;28;1128;-76
2021/07/17 01:23:28;;;;;;;;;;;;;;;21.16;60.40;95930.94;1044144;28;1134;-75
2021/07/17 01:23:58;;;;;;;;;;;;;;;21.16;60.39;95936.19;1039639;28;2784;-75
2021/07/17 01:24:29;;;;;;;;;;;;;;;21.16;60.25;95938.84;1038250;28;2936;-76
2021/07/17 01:24:59;;;;;;;;;;;;;;;21.16;60.25;95931.72;1045216;28;1131;-75
2021/07/17 01:25:31;;;;;;;;;;;;;;;21.18;60.35;95937.50;1038955;28;2919;-75
2021/07/17 01:26:02;;;;;;;;;;;;;;;21.18;60.47;95934.09;1036293;28;2918;-76
2021/07/17 01:26:32;;;;;;;;;;;;;;;21.18;60.19;95934.88;1040952;28;961;-76
2021/07/17 01:27:03;;;;;;;;;;;;;;;21.20;60.18;95934.59;1043713;28;1203;-76
2021/07/17 01:27:33;;;;;;;;;;;;;;;21.20;60.30;95935.38;1044302;28;1219;-76
2021/07/17 01:28:03;;;;;;;;;;;;;;;21.21;60.26;95936.16;1043375;28;1917;-75
2021/07/17 01:28:34;;;;;;;;;;;;;;;21.19;60.23;95936.44;1040931;28;1058;-76
2021/07/17 01:29:04;;;;;;;;;;;;;;;21.19;60.45;95933.78;1036478;28;1261;-75
2021/07/17 01:29:34;;;;;;;;;;;;;;;21.18;60.49;95936.72;1036533;28;1421;-75
2021/07/17 01:30:09;;;;;;;;;;;;;;;21.16;60.42;95936.19;1035844;28;1901;-75
2021/07/17 01:30:39;;;;;;;;;;;;;;;21.16;60.61;95937.00;1040014;28;2793;-75
2021/07/17 01:31:09;;;;;;;;;;;;;;;21.17;60.46;95943.03;1048190;28;1147;-76
2021/07/17 01:31:40;;;;;;;;;;;;;;;21.17;60.27;95945.66;1049664;28;1005;-76
2021/07/17 01:32:10;;;;;;;;;;;;;;;21.17;60.38;95937.75;1045460;28;1146;-75
2021/07/17 01:32:40;;;;;;;;;;;;;;;21.17;60.31;95938.56;1045372;28;843;-75
2021/07/17 01:33:11;;;;;;;;;;;;;;;21.17;60.16;95938.56;1048908;28;1210;-75
2021/07/17 01:33:41;;;;;;;;;;;;;;;21.17;60.10;95940.41;1046597;28;1090;-74
2021/07/17 01:34:11;;;;;;;;;;;;;;;21.17;60.24;95933.28;1044705;28;1168;-75
2021/07/17 01:34:42;;;;;;;;;;;;;;;21.18;60.20;95934.88;1040186;28;1353;-75
2021/07/17 01:35:12;;;;;;;;;;;;;;;21.17;60.31;95937.75;1040819;28;2611;-75
2021/07/17 01:35:43;;;;;;;;;;;;;;;21.17;60.43;95943.03;1038089;28;2459;-75
2021/07/17 01:36:14;;;;;;;;;;;;;;;21.17;60.27;95943.03;1040858;28;1266;-76
2021/07/17 01:36:45;;;;;;;;;;;;;;;21.16;60.47;95944.91;1039824;28;2859;-75
2021/07/17 01:37:15;;;;;;;;;;;;;;;21.16;60.41;95946.75;1038910;28;2907;-75
2021/07/17 01:37:45;;;;;;;;;;;;;;;21.17;60.21;95945.66;1041668;28;2712;-73
2021/07/17 01:38:15;;;;;;;;;;;;;;;21.17;60.12;95950.94;1036922;28;2449;-75
2021/07/17 01:38:46;;;;;;;;;;;;;;;21.16;60.00;95946.75;1041406;28;1175;-76
2021/07/17 01:39:16;;;;;;;;;;;;;;;21.17;60.06;95949.09;1046549;28;1253;-74
2021/07/17 01:39:46;;;;;;;;;;;;;;;21.18;60.31;95950.69;1045257;28;1194;-75
2021/07/17 01:40:20;;;;;;;;;;;;;;;21.18;60.33;95948.06;1047606;28;2877;-76
2021/07/17 01:40:50;;;;;;;;;;;;;;;21.18;60.24;95944.63;1045311;28;1304;-76
2021/07/17 01:41:21;;;;;;;;;;;;;;;21.17;60.34;95943.81;1045102;28;1033;-76
2021/07/17 01:41:51;;;;;;;;;;;;;;;21.18;60.25;95947.25;1045536;28;1198;-76
2021/07/17 01:42:21;;;;;;;;;;;;;;;21.17;60.26;95945.66;1045458;28;1245;-75
2021/07/17 01:42:52;;;;;;;;;;;;;;;21.16;60.32;95942.28;1036474;28;1319;-76
2021/07/17 01:43:23;;;;;;;;;;;;;;;21.17;60.29;95948.31;1033639;28;1466;-75
2021/07/17 01:43:55;;;;;;;;;;;;;;;21.14;60.61;95940.97;1037141;28;1024;-76
2021/07/17 01:44:26;;;;;;;;;;;;;;;21.14;60.54;95943.59;1037542;28;792;-75
2021/07/17 01:44:56;;;;;;;;;;;;;;;21.14;60.50;95943.59;1040809;28;1569;-77
2021/07/17 01:45:27;;;;;;;;;;;;;;;21.13;60.61;95942.78;1034963;28;2470;-74
2021/07/17 01:45:58;;;;;;;;;;;;;;;21.13;60.52;95942.00;1032953;28;1443;-77
2021/07/17 01:46:28;;;;;;;;;;;;;;;21.12;60.75;95949.16;1032835;28;1276;-76
2021/07/17 01:46:59;;;;;;;;;;;;;;;21.11;60.66;95947.56;1032359;28;1255;-77
2021/07/17 01:47:29;;;;;;;;;;;;;;;21.12;60.91;95943.06;1036111;28;1837;-76
2021/07/17 01:47:59;;;;;;;;;;;;;;;21.11;60.66;95944.13;1046899;28;1909;-75
2021/07/17 01:48:29;;;;;;;;;;;;;;;21.12;60.52;95948.34;1049363;28;974;-76
2021/07/17 01:49:00;;;;;;;;;;;;;;;21.12;60.58;95950.97;1045637;28;1197;-76
2021/07/17 01:49:30;;;;;;;;;;;;;;;21.12;60.75;95953.63;1044390;28;1352;-75
2021/07/17 01:50:00;;;;;;;;;;;;;;;21.12;60.53;95958.88;1046493;28;1520;-77
2021/07/17 01:50:31;;;;;;;;;;;;;;;21.12;60.70;95964.97;1040841;28;2515;-75
2021/07/17 01:51:01;;;;;;;;;;;;;;;21.12;60.46;95956.25;1040420;28;1304;-76
2021/07/17 01:51:31;;;;;;;;;;;;;;;21.12;60.72;95964.16;1041005;28;1064;-76
2021/07/17 01:52:01;;;;;;;;;;;;;;;21.11;60.52;95959.94;1039420;28;1275;-75
2021/07/17 01:52:32;;;;;;;;;;;;;;;21.11;60.68;95966.00;1036797;28;902;-76
2021/07/17 01:53:03;;;;;;;;;;;;;;;21.11;60.81;95965.22;1041377;28;1136;-76
2021/07/17 01:53:33;;;;;;;;;;;;;;;21.11;60.63;95954.66;1044002;28;1654;-76
2021/07/17 01:54:03;;;;;;;;;;;;;;;21.12;60.94;95958.88;1043611;28;3045;-76
2021/07/17 01:54:34;;;;;;;;;;;;;;;21.10;60.69;95959.16;1038929;28;2325;-77
2021/07/17 01:55:05;;;;;;;;;;;;;;;21.10;60.71;95956.53;1038996;28;1458;-76
2021/07/17 01:55:35;;;;;;;;;;;;;;;21.11;60.78;95962.56;1033123;28;2855;-75
2021/07/17 01:56:06;;;;;;;;;;;;;;;21.11;60.60;95957.31;1037893;28;1342;-74
2021/07/17 01:56:36;;;;;;;;;;;;;;;21.10;60.69;95963.66;1036779;28;1318;-75
2021/07/17 01:57:06;;;;;;;;;;;;;;;21.11;60.36;95962.56;1034718;28;1595;-75
2021/07/17 01:57:38;;;;;;;;;;;;;;;21.11;60.52;95954.66;1038124;28;1184;-76
2021/07/17 01:58:08;;;;;;;;;;;;;;;21.11;60.62;95955.47;1041581;28;1186;-77
2021/07/17 01:58:38;;;;;;;;;;;;;;;21.11;60.73;95950.19;1044864;28;1154;-76
2021/07/17 01:59:08;;;;;;;;;;;;;;;21.10;60.61;95955.75;1043852;28;1381;-76
2021/07/17 01:59:39;;;;;;;;;;;;;;;21.09;60.82;95952.31;1044670;28;967;-75
2021/07/17 02:00:09;;;;;;;;;;;;;;;21.06;60.87;95948.34;1044949;28;1277;-74
2021/07/17 02:00:40;;;;;;;;;;;;;;;21.06;60.70;95945.72;1039254;28;2523;-76
2021/07/17 02:01:10;;;;;;;;;;;;;;;21.06;60.89;95947.59;1039981;28;1350;-75
2021/07/17 02:01:41;;;;;;;;;;;;;;;21.05;60.90;95956.56;1037435;28;1203;-73
2021/07/17 02:02:11;;;;;;;;;;;;;;;21.04;61.26;95942.56;1038581;28;1152;-76
2021/07/17 02:02:42;;;;;;;;;;;;;;;21.04;60.97;95945.22;1036169;28;1757;-76
2021/07/17 02:03:12;;;;;;;;;;;;;;;21.03;61.16;95938.38;1040425;28;1036;-75
2021/07/17 02:03:46;;;;;;;;;;;;;;;21.02;61.00;95939.41;1041523;28;1211;-76
2021/07/17 02:04:16;;;;;;;;;;;;;;;21.04;61.05;95947.09;1041224;28;1190;-75
2021/07/17 02:04:46;;;;;;;;;;;;;;;21.04;60.91;95947.09;1041425;28;1155;-75
2021/07/17 02:05:17;;;;;;;;;;;;;;;21.03;61.16;95946.28;1044530;28;2674;-76
2021/07/17 02:05:47;;;;;;;;;;;;;;;21.04;60.91;95945.22;1043379;28;2664;-76
2021/07/17 02:06:24;;;;;;;;;;;;;;;21.05;60.98;95938.09;1040788;28;1248;-76
2021/07/17 02:06:54;;;;;;;;;;;;;;;21.05;61.02;95948.66;1036621;28;1056;-75
2021/07/17 02:07:24;;;;;;;;;;;;;;;21.05;60.87;95935.47;1029593;28;1253;-76
2021/07/17 02:07:55;;;;;;;;;;;;;;;21.04;60.75;95939.94;1027559;28;1355;-75
2021/07/17 02:08:27;;;;;;;;;;;;;;;21.04;60.90;95937.31;1030906;28;1910;-76
2021/07/17 02:08:57;;;;;;;;;;;;;;;21.03;60.88;95932.31;1034423;28;1187;-76
2021/07/17 02:09:27;;;;;;;;;;;;;;;21.03;61.24;95937.59;1036624;28;784;-75
2021/07/17 02:09:58;;;;;;;;;;;;;;;21.02;60.89;95936.78;1036602;28;1307;-75
2021/07/17 02:10:29;;;;;;;;;;;;;;;21.02;61.11;95939.41;1040769;28;2325;-75
2021/07/17 02:10:59;;;;;;;;;;;;;;;21.02;61.02;95936.00;1040728;28;1160;-75
2021/07/17 02:11:29;;;;;;;;;;;;;;;21.01;61.30;95931.75;1036859;28;978;-76
2021/07/17 02:12:01;;;;;;;;;;;;;;;21.02;61.05;95938.63;1040419;28;1138;-75
2021/07/17 02:12:32;;;;;;;;;;;;;;;21.02;61.05;95936.78;1040063;28;1907;-75
2021/07/17 02:13:05;;;;;;;;;;;;;;;21.02;61.01;95938.63;1041080;28;1322;-75
2021/07/17 02:13:35;;;;;;;;;;;;;;;21.01;61.20;95932.56;1046426;28;1166;-75
2021/07/17 02:14:05;;;;;;;;;;;;;;;21.02;61.24;95936.00;1039332;28;2353;-75
2021/07/17 02:14:36;;;;;;;;;;;;;;;21.02;61.13;95926.25;1040104;28;1232;-75
2021/07/17 02:15:09;;;;;;;;;;;;;;;21.01;60.99;95929.94;1046763;28;1135;-74
2021/07/17 02:15:46;;;;;;;;;;;;;;;21.02;61.07;95925.44;1043448;28;2713;-74
2021/07/17 02:16:16;;;;;;;;;;;;;;;21.02;61.14;95926.25;1040841;28;719;-75
2021/07/17 02:16:47;;;;;;;;;;;;;;;21.02;61.16;95925.44;1042158;28;1108;-74
2021/07/17 02:17:17;;;;;;;;;;;;;;;21.03;61.06;95927.03;1041706;28;1386;-75
2021/07/17 02:17:47;;;;;;;;;;;;;;;21.04;61.19;95928.63;1040841;28;1179;-76
2021/07/17 02:18:21;;;;;;;;;;;;;;;21.04;61.02;95928.63;1035516;28;1329;-76
2021/07/17 02:18:52;;;;;;;;;;;;;;;21.04;60.88;95926.75;1028271;28;1461;-75
2021/07/17 02:19:22;;;;;;;;;;;;;;;21.04;61.07;95926.00;1024634;28;1390;-75
2021/07/17 02:19:53;;;;;;;;;;;;;;;21.03;60.95;95925.19;1028961;28;1125;-75
2021/07/17 02:20:23;;;;;;;;;;;;;;;21.04;61.05;95918.09;1031977;28;2381;-74
2021/07/17 02:20:53;;;;;;;;;;;;;;;21.02;60.94;95923.59;1039949;28;2145;-76
2021/07/17 02:21:24;;;;;;;;;;;;;;;21.03;61.14;95922.56;1042058;28;1820;-76
2021/07/17 02:21:54;;;;;;;;;;;;;;;21.03;60.91;95927.84;1036943;28;1225;-76
2021/07/17 02:22:24;;;;;;;;;;;;;;;21.04;61.07;95926.00;1037898;28;1226;-76
2021/07/17 02:22:55;;;;;;;;;;;;;;;21.05;60.90;95924.91;1035540;28;1129;-75
2021/07/17 02:23:25;;;;;;;;;;;;;;;21.04;61.25;95921.50;1039683;28;1138;-75
2021/07/17 02:23:55;;;;;;;;;;;;;;;21.05;61.16;95925.72;1046322;28;1210;-75
2021/07/17 02:24:26;;;;;;;;;;;;;;;21.05;61.07;95925.72;1036572;28;2677;-74
2021/07/17 02:24:56;;;;;;;;;;;;;;;21.06;60.97;95918.59;1043149;28;2661;-76
2021/07/17 02:25:26;;;;;;;;;;;;;;;21.06;61.03;95922.00;1044108;28;2631;-75
2021/07/17 02:25:56;;;;;;;;;;;;;;;21.06;61.08;95927.28;1038459;28;2194;-73
2021/07/17 02:26:27;;;;;;;;;;;;;;;21.08;61.00;95920.97;1044380;28;1354;-73
2021/07/17 02:26:57;;;;;;;;;;;;;;;21.08;61.03;95918.31;1040460;28;1309;-74
2021/07/17 02:27:28;;;;;;;;;;;;;;;21.06;61.02;95923.88;1036287;28;1393;-73
2021/07/17 02:27:58;;;;;;;;;;;;;;;21.04;60.98;95918.84;1036566;28;1910;-75
2021/07/17 02:28:28;;;;;;;;;;;;;;;21.03;61.00;95921.78;1034932;28;1451;-74
2021/07/17 02:28:59;;;;;;;;;;;;;;;21.00;61.20;95923.06;1043201;28;1055;-73
2021/07/17 02:29:29;;;;;;;;;;;;;;;20.98;61.11;95925.19;1044826;28;1387;-74
2021/07/17 02:29:59;;;;;;;;;;;;;;;20.97;61.16;95918.34;1044029;28;1234;-73
2021/07/17 02:30:30;;;;;;;;;;;;;;;20.97;61.16;95922.81;1041093;28;2176;-74
2021/07/17 02:31:00;;;;;;;;;;;;;;;20.97;61.30;95922.81;1042930;28;1397;-73
2021/07/17 02:31:30;;;;;;;;;;;;;;;20.96;61.03;95922.03;1036753;28;2784;-73
2021/07/17 02:32:01;;;;;;;;;;;;;;;20.95;61.21;95919.69;1039124;28;2323;-74
2021/07/17 02:32:31;;;;;;;;;;;;;;;20.93;61.08;95922.59;1040517;28;1055;-74
2021/07/17 02:33:01;;;;;;;;;;;;;;;20.92;61.13;95921.00;1043073;28;2335;-71
2021/07/17 02:33:32;;;;;;;;;;;;;;;20.92;61.29;95920.19;1043499;28;2649;-73
2021/07/17 02:34:03;;;;;;;;;;;;;;;20.93;61.04;95921.78;1041761;28;1558;-74
2021/07/17 02:34:33;;;;;;;;;;;;;;;20.91;61.02;95913.38;1043601;28;1475;-73
2021/07/17 02:35:04;;;;;;;;;;;;;;;20.91;61.12;95921.28;1043155;28;1179;-73
2021/07/17 02:35:34;;;;;;;;;;;;;;;20.90;60.89;95914.41;1043777;28;2679;-75
2021/07/17 02:36:04;;;;;;;;;;;;;;;20.90;61.19;95922.31;1047705;28;1032;-75
2021/07/17 02:36:35;;;;;;;;;;;;;;;20.91;61.06;95919.44;1049323;28;1017;-75
2021/07/17 02:37:05;;;;;;;;;;;;;;;20.91;61.31;95914.16;1045877;28;1130;-75
2021/07/17 02:37:35;;;;;;;;;;;;;;;20.92;61.32;95917.56;1044555;28;1142;-75
2021/07/17 02:38:06;;;;;;;;;;;;;;;20.90;61.24;95917.84;1042188;28;1422;-74
2021/07/17 02:38:36;;;;;;;;;;;;;;;20.91;61.26;95922.06;1043211;28;1249;-72
2021/07/17 02:39:07;;;;;;;;;;;;;;;20.91;61.10;95919.44;1043450;28;1127;-74
2021/07/17 02:39:37;;;;;;;;;;;;;;;20.91;61.09;95919.44;1039959;28;1431;-75
2021/07/17 02:40:08;;;;;;;;;;;;;;;20.92;61.00;95925.47;1038269;28;1133;-73
2021/07/17 02:40:38;;;;;;;;;;;;;;;20.92;61.08;95918.38;1038278;28;2313;-74
2021/07/17 02:41:08;;;;;;;;;;;;;;;20.92;60.95;95921.00;1040269;28;1159;-75
2021/07/17 02:41:38;;;;;;;;;;;;;;;20.93;61.14;95922.59;1038125;28;1520;-76